Terminal Aerodrome Forecast
Issued by NWS Cleveland, OH

Home | Current Version | Previous Version | Graphics & Text | Print | Product List | Glossary Off
Versions: 1 2 3 4 5 6 7 8 9 10 11 12 13 14 15 16 17 18

000
FTUS41 KCLE 011120
TAFTOL
TAF
KTOL 011120Z 0112/0212 26008KT P6SM SCT008 BKN015
      TEMPO 0112/0114 BKN008
     FM011400 29010KT P6SM BKN015 BKN035
      TEMPO 0114/0116 SCT015
     FM011600 30010KT P6SM BKN050
     FM012000 30010KT P6SM SCT050
     FM020200 36002KT P6SM SKC=

USA.gov is the U.S. government's official web portal to all federal, state and local government web resources and services.